createdAt,value
2022-08-11T00:01:36.996Z,14.30
2022-08-11T00:04:05.828Z,14.30
2022-08-11T00:06:35.915Z,14.30
2022-08-11T00:09:05.754Z,14.30
2022-08-11T00:11:39.471Z,14.20
2022-08-11T00:14:16.416Z,14.20
2022-08-11T00:16:52.717Z,14.20
2022-08-11T00:20:11.914Z,14.20
2022-08-11T00:22:21.374Z,14.10
2022-08-11T00:24:53.709Z,14.00
2022-08-11T00:27:33.568Z,14.00
2022-08-11T00:30:00.572Z,13.90
2022-08-11T00:32:29.018Z,13.90
2022-08-11T00:35:52.534Z,13.80
2022-08-11T00:37:50.729Z,13.80
2022-08-11T00:40:32.716Z,13.80
2022-08-11T00:43:11.567Z,13.80
2022-08-11T00:46:10.927Z,13.80
2022-08-11T00:48:57.444Z,13.70
2022-08-11T00:52:03.962Z,13.70
2022-08-11T00:55:07.328Z,13.60
2022-08-11T00:57:52.803Z,13.50
2022-08-11T01:00:23.410Z,13.50
2022-08-11T01:02:53.257Z,13.40
2022-08-11T01:05:50.474Z,13.50
2022-08-11T01:08:34.668Z,13.40
2022-08-11T01:11:23.651Z,13.30
2022-08-11T01:13:56.397Z,13.20
2022-08-11T01:16:47.292Z,13.10
2022-08-11T01:19:29.206Z,13.10
2022-08-11T01:22:31.528Z,13.00
2022-08-11T01:25:19.962Z,12.90
2022-08-11T01:28:22.284Z,12.90
2022-08-11T01:31:19.642Z,12.80
2022-08-11T01:34:27.647Z,12.70
2022-08-11T01:37:31.268Z,12.70
2022-08-11T01:40:00.941Z,12.60
2022-08-11T01:43:00.492Z,12.60
2022-08-11T01:45:56.895Z,12.60
2022-08-11T01:48:34.699Z,12.70
2022-08-11T01:51:04.598Z,12.60
2022-08-11T01:53:47.759Z,12.60
2022-08-11T01:56:30.097Z,12.60
2022-08-11T01:59:11.743Z,12.50
2022-08-11T02:01:44.510Z,12.50
2022-08-11T02:04:30.023Z,12.40
2022-08-11T02:07:26.328Z,12.40
2022-08-11T02:10:38.419Z,12.60
2022-08-11T02:13:46.138Z,12.60
2022-08-11T02:16:14.283Z,12.70
2022-08-11T02:19:05.287Z,12.60
2022-08-11T02:22:02.664Z,12.50
2022-08-11T02:24:41.414Z,12.40
2022-08-11T02:27:18.584Z,12.40
2022-08-11T02:29:45.417Z,12.40
2022-08-11T02:32:51.856Z,12.40
2022-08-11T02:35:29.069Z,12.40
2022-08-11T02:38:07.991Z,12.40
2022-08-11T02:41:00.904Z,12.40
2022-08-11T02:43:46.056Z,12.40
2022-08-11T02:46:31.382Z,12.30
2022-08-11T02:49:22.504Z,12.30
2022-08-11T02:52:14.419Z,12.20
2022-08-11T02:54:56.332Z,12.20
2022-08-11T02:57:33.446Z,12.10
2022-08-11T03:00:12.350Z,12.10
2022-08-11T03:03:17.909Z,12.10
2022-08-11T03:05:50.290Z,12.00
2022-08-11T03:08:39.899Z,12.00
2022-08-11T03:11:38.896Z,12.00
2022-08-11T03:14:43.036Z,12.00
2022-08-11T03:17:34.256Z,11.90
2022-08-11T03:20:38.028Z,11.90
2022-08-11T03:23:23.353Z,11.90
2022-08-11T03:26:20.804Z,11.90
2022-08-11T03:29:08.159Z,11.80
2022-08-11T03:31:46.049Z,11.90
2022-08-11T03:34:22.139Z,12.00
2022-08-11T03:37:33.979Z,12.00
2022-08-11T03:40:41.037Z,12.00
2022-08-11T03:43:25.681Z,12.30
2022-08-11T03:45:58.403Z,12.20
2022-08-11T03:48:43.576Z,12.20
2022-08-11T03:51:51.574Z,12.10
2022-08-11T03:54:38.362Z,12.00
2022-08-11T03:57:17.319Z,12.00
2022-08-11T04:00:21.595Z,12.10
2022-08-11T04:03:16.300Z,12.20
2022-08-11T04:06:12.015Z,12.30
2022-08-11T04:09:13.338Z,12.20
2022-08-11T04:12:35.359Z,12.10
2022-08-11T04:15:57.378Z,12.10
2022-08-11T04:18:58.539Z,12.10
2022-08-11T04:22:03.305Z,12.10
2022-08-11T04:24:50.295Z,12.10
2022-08-11T04:27:37.290Z,12.10
2022-08-11T04:30:28.390Z,12.20
2022-08-11T04:32:59.874Z,12.40
2022-08-11T04:35:54.753Z,12.50
2022-08-11T04:38:38.310Z,12.50
2022-08-11T04:41:26.820Z,12.60
2022-08-11T04:44:37.590Z,12.60
2022-08-11T04:47:11.200Z,12.60
2022-08-11T04:50:14.566Z,12.80
2022-08-11T04:53:21.747Z,12.90
2022-08-11T04:56:24.850Z,13.00
2022-08-11T04:59:34.453Z,13.00
2022-08-11T05:02:32.214Z,13.10
2022-08-11T05:05:26.935Z,13.20
2022-08-11T05:08:23.903Z,13.30
2022-08-11T05:11:16.157Z,13.40
2022-08-11T05:14:05.986Z,13.50
2022-08-11T05:17:11.848Z,13.60
2022-08-11T05:19:57.595Z,13.80
2022-08-11T05:22:49.499Z,14.00
2022-08-11T05:26:42.533Z,14.10
2022-08-11T05:28:52.899Z,14.30
2022-08-11T05:31:45.404Z,14.40
2022-08-11T05:34:44.006Z,14.50
2022-08-11T05:37:27.092Z,14.60
2022-08-11T05:40:24.192Z,14.70
2022-08-11T05:43:14.281Z,14.80
2022-08-11T05:46:03.617Z,15.00
2022-08-11T05:48:55.609Z,15.10
2022-08-11T05:51:54.856Z,15.20
2022-08-11T05:54:46.071Z,15.30
2022-08-11T05:57:45.436Z,15.50
2022-08-11T06:00:12.781Z,15.60
2022-08-11T06:03:07.560Z,15.70
2022-08-11T06:05:37.316Z,15.90
2022-08-11T06:08:09.861Z,16.00
2022-08-11T06:10:39.441Z,16.10
2022-08-11T06:13:08.125Z,16.20
2022-08-11T06:15:48.269Z,16.40
2022-08-11T06:18:16.804Z,16.50
2022-08-11T06:20:50.136Z,16.60
2022-08-11T06:23:20.533Z,16.70
2022-08-11T06:25:48.122Z,16.90
2022-08-11T06:28:20.577Z,17.00
2022-08-11T06:30:49.120Z,17.10
2022-08-11T06:33:31.358Z,17.20
2022-08-11T06:36:10.762Z,17.30
2022-08-11T06:38:56.009Z,17.50
2022-08-11T06:41:34.402Z,17.60
2022-08-11T06:44:07.375Z,17.70
2022-08-11T06:47:02.008Z,17.90
2022-08-11T06:50:02.297Z,18.00
2022-08-11T06:52:41.208Z,18.20
2022-08-11T06:55:55.995Z,18.30
2022-08-11T06:58:49.663Z,18.40
2022-08-11T07:01:30.070Z,18.60
2022-08-11T07:04:06.767Z,18.80
2022-08-11T07:07:14.909Z,18.90
2022-08-11T07:10:06.492Z,19.00
2022-08-11T07:13:01.981Z,19.10
2022-08-11T07:16:11.087Z,19.30
2022-08-11T07:18:53.945Z,19.40
2022-08-11T07:22:01.723Z,19.60
2022-08-11T07:25:01.783Z,19.70
2022-08-11T07:27:54.887Z,19.80
2022-08-11T07:30:22.247Z,19.90
2022-08-11T07:32:56.504Z,20.00
2022-08-11T07:35:36.382Z,20.10
2022-08-11T07:38:08.131Z,20.20
2022-08-11T07:40:36.261Z,20.30
2022-08-11T07:43:04.982Z,20.40
2022-08-11T07:45:51.101Z,20.50
2022-08-11T07:48:37.924Z,20.60
2022-08-11T07:51:23.995Z,20.70
2022-08-11T07:54:03.040Z,20.80
2022-08-11T07:56:55.431Z,20.80
2022-08-11T08:00:04.207Z,20.90
2022-08-11T08:02:51.372Z,20.90
2022-08-11T08:05:38.114Z,21.00
2022-08-11T08:08:26.422Z,21.20
2022-08-11T08:11:14.427Z,21.20
2022-08-11T08:14:01.904Z,21.30
2022-08-11T08:16:49.917Z,21.40
2022-08-11T08:19:20.726Z,21.50
2022-08-11T08:21:48.419Z,21.60
2022-08-11T08:24:15.890Z,21.60
2022-08-11T08:27:05.164Z,21.60
2022-08-11T08:29:52.935Z,21.70
2022-08-11T08:32:21.858Z,21.80
2022-08-11T08:34:55.132Z,21.70
2022-08-11T08:37:45.948Z,21.70
2022-08-11T08:40:13.197Z,21.80
2022-08-11T08:42:51.632Z,22.00
2022-08-11T08:45:19.225Z,22.10
2022-08-11T08:47:53.370Z,22.30
2022-08-11T08:50:27.510Z,22.30
2022-08-11T08:53:05.820Z,22.30
2022-08-11T08:55:33.942Z,22.60
2022-08-11T08:58:01.792Z,22.60
2022-08-11T09:00:46.348Z,22.70
2022-08-11T09:06:01.413Z,22.80
2022-08-11T09:08:32.697Z,22.90
2022-08-11T09:11:20.184Z,23.00
2022-08-11T09:14:05.563Z,23.00
2022-08-11T09:16:35.470Z,23.10
2022-08-11T09:19:03.176Z,23.20
2022-08-11T09:21:39.312Z,23.30
2022-08-11T09:24:49.764Z,23.40
2022-08-11T09:27:16.858Z,23.50
2022-08-11T09:29:45.617Z,23.50
2022-08-11T09:32:13.188Z,23.60
2022-08-11T09:34:40.196Z,23.70
2022-08-11T09:37:54.729Z,23.70
2022-08-11T09:40:31.301Z,23.70
2022-08-11T09:43:24.495Z,23.80
2022-08-11T09:45:56.835Z,23.90
2022-08-11T09:48:26.915Z,23.90
2022-08-11T09:50:56.764Z,23.90
2022-08-11T09:53:35.900Z,23.80
2022-08-11T09:56:33.264Z,23.90
2022-08-11T09:59:01.379Z,24.00
2022-08-11T10:01:41.692Z,24.10
2022-08-11T10:04:31.307Z,24.10
2022-08-11T10:07:06.963Z,24.30
2022-08-11T10:09:42.404Z,24.40
2022-08-11T10:12:21.950Z,24.40
2022-08-11T10:15:11.241Z,24.50
2022-08-11T10:18:03.010Z,24.60
2022-08-11T10:20:35.050Z,24.60
2022-08-11T10:23:22.180Z,24.70
2022-08-11T10:26:09.197Z,24.80
2022-08-11T10:28:55.987Z,25.10
2022-08-11T10:31:57.607Z,25.10
2022-08-11T10:34:28.419Z,25.10
2022-08-11T10:36:57.528Z,25.20
2022-08-11T10:39:27.006Z,25.20
2022-08-11T10:42:25.530Z,25.30
2022-08-11T10:45:04.050Z,25.20
2022-08-11T10:47:39.332Z,25.30
2022-08-11T10:50:33.545Z,25.40
2022-08-11T10:53:21.453Z,25.40
2022-08-11T10:56:07.700Z,25.60
2022-08-11T10:58:50.568Z,25.70
2022-08-11T11:01:26.762Z,25.80
2022-08-11T11:04:00.377Z,25.90
2022-08-11T11:06:47.131Z,26.10
2022-08-11T11:09:19.089Z,26.00
2022-08-11T11:12:09.884Z,26.10
2022-08-11T11:14:59.216Z,26.10
2022-08-11T11:18:09.529Z,26.20
2022-08-11T11:20:46.550Z,26.20
2022-08-11T11:23:35.919Z,26.20
2022-08-11T11:26:27.564Z,26.10
2022-08-11T11:29:22.535Z,26.20
2022-08-11T11:32:09.017Z,26.30
2022-08-11T11:34:54.193Z,26.40
2022-08-11T11:37:23.797Z,26.40
2022-08-11T11:39:51.461Z,26.20
2022-08-11T11:42:19.223Z,26.20
2022-08-11T11:44:47.105Z,26.30
2022-08-11T11:47:15.937Z,26.50
2022-08-11T11:49:44.302Z,26.60
2022-08-11T11:52:18.167Z,26.50
2022-08-11T11:54:52.084Z,26.60
2022-08-11T11:57:39.645Z,26.60
2022-08-11T12:00:33.046Z,26.80
2022-08-11T12:03:06.950Z,26.90
2022-08-11T12:05:38.304Z,27.00
2022-08-11T12:08:18.755Z,26.70
2022-08-11T12:11:13.577Z,26.70
2022-08-11T12:13:52.239Z,26.80
2022-08-11T12:16:34.970Z,26.90
2022-08-11T12:19:18.569Z,27.00
2022-08-11T12:22:04.770Z,27.00
2022-08-11T12:24:52.812Z,27.10
2022-08-11T12:27:25.595Z,27.20
2022-08-11T12:30:09.327Z,27.30
2022-08-11T12:32:38.987Z,27.30
2022-08-11T12:35:07.347Z,27.40
2022-08-11T12:38:09.378Z,27.40
2022-08-11T12:41:15.169Z,27.40
2022-08-11T12:44:04.592Z,27.50
2022-08-11T12:46:39.764Z,27.40
2022-08-11T12:49:46.910Z,27.40
2022-08-11T12:52:22.302Z,27.50
2022-08-11T12:54:57.865Z,27.40
2022-08-11T12:57:47.527Z,27.40
2022-08-11T13:00:34.118Z,27.60
2022-08-11T13:03:20.922Z,27.60
2022-08-11T13:05:49.842Z,27.60
2022-08-11T13:08:17.685Z,27.40
2022-08-11T13:11:04.678Z,27.40
2022-08-11T13:13:54.301Z,27.40
2022-08-11T13:16:20.749Z,27.40
2022-08-11T13:18:48.608Z,27.30
2022-08-11T13:21:20.486Z,27.30
2022-08-11T13:24:01.601Z,27.30
2022-08-11T13:26:46.888Z,27.30
2022-08-11T13:29:26.497Z,27.40
2022-08-11T13:31:56.473Z,27.40
2022-08-11T13:34:25.529Z,27.30
2022-08-11T13:36:55.838Z,27.50
2022-08-11T13:39:27.116Z,27.60
2022-08-11T13:41:56.932Z,27.60
2022-08-11T13:44:27.291Z,27.60
2022-08-11T13:47:01.487Z,27.70
2022-08-11T13:49:39.781Z,27.80
2022-08-11T13:52:17.569Z,28.00
2022-08-11T13:54:50.009Z,28.10
2022-08-11T13:58:06.804Z,28.10
2022-08-11T14:00:25.138Z,28.20
2022-08-11T14:02:57.003Z,28.20
2022-08-11T14:05:29.270Z,28.10
2022-08-11T14:08:01.793Z,28.00
2022-08-11T14:10:33.141Z,28.10
2022-08-11T14:13:42.476Z,28.10
2022-08-11T14:16:40.978Z,28.30
2022-08-11T14:19:12.633Z,28.40
2022-08-11T14:22:06.562Z,28.40
2022-08-11T14:24:40.798Z,28.50
2022-08-11T14:28:30.904Z,28.50
2022-08-11T14:29:58.906Z,28.50
2022-08-11T14:32:26.881Z,28.40
2022-08-11T14:34:55.180Z,28.30
2022-08-11T14:37:25.561Z,28.40
2022-08-11T14:39:58.218Z,28.40
2022-08-11T14:42:46.460Z,28.30
2022-08-11T14:45:58.166Z,28.30
2022-08-11T14:48:23.107Z,28.20
2022-08-11T14:50:50.597Z,27.90
2022-08-11T14:53:18.747Z,27.70
2022-08-11T14:56:04.747Z,27.60
2022-08-11T14:58:33.903Z,27.50
2022-08-11T15:01:02.798Z,27.60
2022-08-11T15:03:33.640Z,27.60
2022-08-11T15:06:02.484Z,27.80
2022-08-11T15:08:54.494Z,27.90
2022-08-11T15:11:42.936Z,28.20
2022-08-11T15:14:11.463Z,28.60
2022-08-11T15:17:00.858Z,29.00
2022-08-11T15:19:40.655Z,29.20
2022-08-11T15:22:28.576Z,29.20
2022-08-11T15:24:58.210Z,29.30
2022-08-11T15:27:44.132Z,29.10
2022-08-11T15:30:32.126Z,29.00
2022-08-11T15:33:24.171Z,28.90
2022-08-11T15:36:11.551Z,28.60
2022-08-11T15:39:00.360Z,28.20
2022-08-11T15:42:02.217Z,28.10
2022-08-11T15:45:04.111Z,27.90
2022-08-11T15:47:41.655Z,27.60
2022-08-11T15:50:15.390Z,27.60
2022-08-11T15:53:07.833Z,27.40
2022-08-11T15:55:36.384Z,27.20
2022-08-11T15:58:23.731Z,27.20
2022-08-11T16:01:11.305Z,27.40
2022-08-11T16:04:12.190Z,27.40
2022-08-11T16:06:49.887Z,27.40
2022-08-11T16:09:22.634Z,27.30
2022-08-11T16:11:51.550Z,27.20
2022-08-11T16:14:38.370Z,27.10
2022-08-11T16:17:07.163Z,27.20
2022-08-11T16:19:36.635Z,27.50
2022-08-11T16:22:09.748Z,28.60
2022-08-11T16:27:03.087Z,28.70
2022-08-11T16:27:35.451Z,29.70
2022-08-11T16:30:03.818Z,31.00
2022-08-11T16:32:32.071Z,32.40
2022-08-11T16:35:35.545Z,33.80
2022-08-11T16:38:23.091Z,34.10
2022-08-11T16:40:52.771Z,32.00
2022-08-11T16:43:41.413Z,30.50
2022-08-11T16:46:29.111Z,29.50
2022-08-11T16:48:56.816Z,28.50
2022-08-11T16:51:24.043Z,27.80
2022-08-11T16:54:03.873Z,27.20
2022-08-11T16:56:51.240Z,26.70
2022-08-11T16:59:29.508Z,26.30
2022-08-11T17:01:58.499Z,26.00
2022-08-11T17:04:54.940Z,27.20
2022-08-11T17:07:43.109Z,28.10
2022-08-11T17:10:53.336Z,27.70
2022-08-11T17:13:33.698Z,27.20
2022-08-11T17:16:09.469Z,26.60
2022-08-11T17:18:54.916Z,26.30
2022-08-11T17:21:58.735Z,26.00
2022-08-11T17:24:28.102Z,26.70
2022-08-11T17:26:58.171Z,26.00
2022-08-11T17:29:27.195Z,25.60
2022-08-11T17:32:13.970Z,25.20
2022-08-11T17:35:02.803Z,24.80
2022-08-11T17:37:33.135Z,24.50
2022-08-11T17:40:04.031Z,24.20
2022-08-11T17:42:51.235Z,23.90
2022-08-11T17:45:38.591Z,23.80
2022-08-11T17:48:24.891Z,23.60
2022-08-11T17:50:54.548Z,23.50
2022-08-11T17:53:41.348Z,23.30
2022-08-11T17:56:49.594Z,23.20
2022-08-11T17:59:36.834Z,23.00
2022-08-11T18:02:28.152Z,22.90
2022-08-11T18:05:07.438Z,22.80
2022-08-11T18:08:01.675Z,22.80
2022-08-11T18:10:50.444Z,22.70
2022-08-11T18:13:41.460Z,22.60
2022-08-11T18:16:28.320Z,22.50
2022-08-11T18:19:14.355Z,22.50
2022-08-11T18:22:15.772Z,22.40
2022-08-11T18:25:16.095Z,22.30
2022-08-11T18:28:04.962Z,22.20
2022-08-11T18:31:03.395Z,22.10
2022-08-11T18:34:07.297Z,22.10
2022-08-11T18:37:02.407Z,22.00
2022-08-11T18:39:56.151Z,21.90
2022-08-11T18:42:43.645Z,21.90
2022-08-11T18:45:35.166Z,21.80
2022-08-11T18:48:36.207Z,21.80
2022-08-11T18:51:31.779Z,21.70
2022-08-11T18:54:29.062Z,21.60
2022-08-11T18:57:18.269Z,21.50
2022-08-11T19:00:05.551Z,21.40
2022-08-11T19:02:53.982Z,21.30
2022-08-11T19:06:05.896Z,21.20
2022-08-11T19:08:53.576Z,21.20
2022-08-11T19:11:42.719Z,21.10
2022-08-11T19:14:33.399Z,21.10
2022-08-11T19:17:43.755Z,21.00
2022-08-11T19:20:31.381Z,21.00
2022-08-11T19:23:18.047Z,21.00
2022-08-11T19:26:05.241Z,21.00
2022-08-11T19:28:53.242Z,20.90
2022-08-11T19:31:44.040Z,20.90
2022-08-11T19:34:32.922Z,20.90
2022-08-11T19:37:24.086Z,20.70
2022-08-11T19:40:12.948Z,20.60
2022-08-11T19:43:01.488Z,20.50
2022-08-11T19:45:52.637Z,20.40
2022-08-11T19:48:44.736Z,20.40
2022-08-11T19:51:31.993Z,20.40
2022-08-11T19:54:19.731Z,20.40
2022-08-11T19:57:07.154Z,20.40
2022-08-11T19:59:54.119Z,20.30
2022-08-11T20:02:40.331Z,20.30
2022-08-11T20:05:27.860Z,20.20
2022-08-11T20:08:17.050Z,20.20
2022-08-11T20:11:05.749Z,20.20
2022-08-11T20:13:52.912Z,20.10
2022-08-11T20:16:41.110Z,20.10
2022-08-11T20:19:56.117Z,20.00
2022-08-11T20:22:35.208Z,20.00
2022-08-11T20:25:23.133Z,20.00
2022-08-11T20:28:10.287Z,20.00
2022-08-11T20:30:56.842Z,20.00
2022-08-11T20:33:43.560Z,20.00
2022-08-11T20:36:30.659Z,20.00
2022-08-11T20:39:18.482Z,19.90
2022-08-11T20:42:06.927Z,19.80
2022-08-11T20:44:55.454Z,19.80
2022-08-11T20:47:56.346Z,19.70
2022-08-11T20:50:45.992Z,19.80
2022-08-11T20:53:36.063Z,19.80
2022-08-11T20:56:28.749Z,19.80
2022-08-11T20:59:19.010Z,19.80
2022-08-11T21:02:09.902Z,19.70
2022-08-11T21:04:57.524Z,19.70
2022-08-11T21:07:55.218Z,19.60
2022-08-11T21:10:46.879Z,19.60
2022-08-11T21:13:37.082Z,19.50
2022-08-11T21:16:26.833Z,19.50
2022-08-11T21:19:18.174Z,19.40
2022-08-11T21:22:05.484Z,19.40
2022-08-11T21:24:52.372Z,19.40
2022-08-11T21:27:40.259Z,19.40
2022-08-11T21:30:26.408Z,19.40
2022-08-11T21:33:13.267Z,19.40
2022-08-11T21:35:59.602Z,19.40
2022-08-11T21:38:46.620Z,19.40
2022-08-11T21:41:34.332Z,19.40
2022-08-11T21:44:20.670Z,19.40
2022-08-11T21:47:06.926Z,19.30
2022-08-11T21:49:54.959Z,19.30
2022-08-11T21:52:40.905Z,19.30
2022-08-11T21:55:27.960Z,19.20
2022-08-11T21:58:14.519Z,19.10
2022-08-11T22:01:01.379Z,19.10
2022-08-11T22:03:50.245Z,19.00
2022-08-11T22:06:37.004Z,18.90
2022-08-11T22:09:22.720Z,18.70
2022-08-11T22:12:29.622Z,18.70
2022-08-11T22:15:14.987Z,18.70
2022-08-11T22:18:00.733Z,18.70
2022-08-11T22:20:47.027Z,18.70
2022-08-11T22:23:37.178Z,18.70
2022-08-11T22:26:24.387Z,18.70
2022-08-11T22:29:10.702Z,18.70
2022-08-11T22:31:57.475Z,18.70
2022-08-11T22:34:44.927Z,18.70
2022-08-11T22:37:40.593Z,18.70
2022-08-11T22:40:28.772Z,18.70
2022-08-11T22:43:14.580Z,18.70
2022-08-11T22:46:00.207Z,18.60
2022-08-11T22:48:49.502Z,18.60
2022-08-11T22:51:38.647Z,18.60
2022-08-11T22:54:24.679Z,18.50
2022-08-11T22:57:10.782Z,18.50
2022-08-11T22:59:57.562Z,18.40
2022-08-11T23:02:46.660Z,18.40
2022-08-11T23:05:34.241Z,18.30
2022-08-11T23:08:20.290Z,18.20
2022-08-11T23:11:07.192Z,18.20
2022-08-11T23:13:53.410Z,18.20
2022-08-11T23:16:39.709Z,18.20
2022-08-11T23:20:10.148Z,18.20
2022-08-11T23:22:37.163Z,18.30
2022-08-11T23:25:36.011Z,18.30
2022-08-11T23:28:24.003Z,18.30
2022-08-11T23:31:12.665Z,18.20
2022-08-11T23:34:01.481Z,18.20
2022-08-11T23:36:48.308Z,18.10
2022-08-11T23:39:35.024Z,18.00
2022-08-11T23:42:22.318Z,18.00
2022-08-11T23:45:10.151Z,18.00
2022-08-11T23:47:57.103Z,18.00
2022-08-11T23:50:44.053Z,18.00
2022-08-11T23:53:31.787Z,17.90
2022-08-11T23:56:21.932Z,17.90
2022-08-11T23:59:11.542Z,18.00
